Daireaux, Argentina
Current Conditions -  °F | °C
As of 11:00 AM on Saturday 20 Dec 2014 (Local Time) from SAEZ Reporting Station
Moderate Rain Moderate Rain  
Wind Chill: 68°   Ceiling: 6000
Heat Index: 68°   Visibility: 5mi
Dew Point: 63°   Wind: 2mph
Humidity: 83%   Direction: NA
Pressure: 29.68"   Gusts: NA
Location:  36.6°S, 61.75°W
Report Text: SAEZ 201400Z VRB02KT 8000 RA SCT030 OVC060 20/17 Q1005
Loading
Personal Weather Stations






























Interactive Weather Map New forecast layout! Learn more

10-Day Weather Forecast

Advertisements
Track Severe Weather on mobile